createdAt,value
2016-03-27T00:00:01.871Z,8.97
2016-03-27T00:01:01.877Z,8.94
2016-03-27T00:02:01.863Z,8.94
2016-03-27T00:03:01.882Z,8.94
2016-03-27T00:04:01.869Z,9.06
2016-03-27T00:05:01.872Z,9.03
2016-03-27T00:06:01.874Z,8.94
2016-03-27T00:07:01.877Z,8.89
2016-03-27T00:08:01.864Z,8.95
2016-03-27T00:09:01.867Z,8.94
2016-03-27T00:10:01.869Z,8.92
2016-03-27T00:11:01.841Z,8.88
2016-03-27T00:12:01.875Z,8.87
2016-03-27T00:13:01.846Z,8.91
2016-03-27T00:14:01.880Z,8.87
2016-03-27T00:15:01.851Z,8.87
2016-03-27T00:16:01.901Z,8.89
2016-03-27T00:17:01.856Z,8.88
2016-03-27T00:18:01.854Z,8.87
2016-03-27T00:19:01.826Z,8.91
2016-03-27T00:20:01.830Z,8.82
2016-03-27T00:21:01.817Z,8.84
2016-03-27T00:22:01.758Z,8.82
2016-03-27T00:23:01.749Z,8.78
2016-03-27T00:24:01.746Z,8.78
2016-03-27T00:25:01.760Z,8.74
2016-03-27T00:26:01.726Z,8.73
2016-03-27T00:27:01.754Z,8.67
2016-03-27T00:28:01.737Z,8.84
2016-03-27T00:29:01.737Z,8.7
2016-03-27T00:30:01.738Z,8.78
2016-03-27T00:31:01.723Z,8.66
2016-03-27T00:32:01.724Z,8.87
2016-03-27T00:33:01.708Z,8.87
2016-03-27T00:34:01.726Z,8.88
2016-03-27T00:35:01.712Z,8.88
2016-03-27T00:36:01.698Z,8.91
2016-03-27T00:37:01.699Z,8.87
2016-03-27T00:38:01.718Z,8.89
2016-03-27T00:39:01.721Z,8.82
2016-03-27T00:40:01.724Z,8.71
2016-03-27T00:41:01.695Z,8.71
2016-03-27T00:42:01.698Z,8.7
2016-03-27T00:43:01.731Z,8.78
2016-03-27T00:44:01.688Z,8.69
2016-03-27T00:45:04.721Z,8.69
2016-03-27T00:46:01.708Z,8.7
2016-03-27T00:47:01.695Z,8.6
2016-03-27T00:48:01.714Z,8.67
2016-03-27T00:49:01.701Z,8.58
2016-03-27T00:50:01.734Z,8.55
2016-03-27T00:51:01.706Z,8.52
2016-03-27T00:52:01.725Z,8.56
2016-03-27T00:53:01.681Z,8.49
2016-03-27T00:54:01.683Z,8.55
2016-03-27T00:55:01.700Z,8.41
2016-03-27T00:56:01.673Z,8.42
2016-03-27T00:57:01.675Z,8.41
2016-03-27T00:58:01.709Z,8.36
2016-03-27T00:59:01.666Z,8.3
2016-03-27T01:00:01.699Z,8.24
2016-03-27T01:01:01.717Z,8.27
2016-03-27T01:02:01.674Z,8.18
2016-03-27T01:03:01.676Z,8.18
2016-03-27T01:04:01.679Z,8.24
2016-03-27T01:05:01.682Z,8.2
2016-03-27T01:06:01.668Z,8.24
2016-03-27T01:07:01.688Z,8.19
2016-03-27T01:08:01.678Z,8.1
2016-03-27T01:09:01.680Z,8.15
2016-03-27T01:10:01.683Z,8.13
2016-03-27T01:11:01.655Z,8.09
2016-03-27T01:12:01.860Z,8.09
2016-03-27T01:13:01.661Z,8.06
2016-03-27T01:14:01.663Z,8.03
2016-03-27T01:15:01.665Z,8.05
2016-03-27T01:16:01.669Z,8.06
2016-03-27T01:17:01.671Z,8.1
2016-03-27T01:18:01.657Z,7.98
2016-03-27T01:19:01.661Z,8.03
2016-03-27T01:20:01.679Z,8.01
2016-03-27T01:21:01.666Z,7.94
2016-03-27T01:22:01.653Z,7.97
2016-03-27T01:23:02.249Z,7.82
2016-03-27T01:24:01.924Z,7.91
2016-03-27T01:25:01.646Z,7.82
2016-03-27T01:26:01.663Z,7.94
2016-03-27T01:27:01.931Z,7.88
2016-03-27T01:28:01.654Z,7.87
2016-03-27T01:29:01.656Z,7.91
2016-03-27T01:30:01.659Z,7.82
2016-03-27T01:31:01.630Z,7.85
2016-03-27T01:32:01.664Z,7.82
2016-03-27T01:33:01.651Z,7.77
2016-03-27T01:34:01.654Z,7.85
2016-03-27T01:35:01.656Z,7.87
2016-03-27T01:36:01.628Z,7.77
2016-03-27T01:37:01.646Z,7.79
2016-03-27T01:38:01.633Z,7.88
2016-03-27T01:39:01.620Z,7.85
2016-03-27T01:40:01.623Z,7.98
2016-03-27T01:41:01.626Z,7.97
2016-03-27T01:42:01.629Z,7.91
2016-03-27T01:43:01.459Z,7.88
2016-03-27T01:44:01.633Z,7.9
2016-03-27T01:45:01.652Z,7.87
2016-03-27T01:46:01.624Z,7.82
2016-03-27T01:47:01.642Z,7.85
2016-03-27T01:48:01.613Z,7.91
2016-03-27T01:49:01.616Z,7.79
2016-03-27T01:50:01.635Z,7.76
2016-03-27T01:51:01.622Z,7.82
2016-03-27T01:52:01.608Z,7.77
2016-03-27T01:53:01.580Z,7.83
2016-03-27T01:54:01.599Z,7.72
2016-03-27T01:55:01.601Z,7.83
2016-03-27T01:56:01.619Z,7.72
2016-03-27T01:57:01.607Z,7.83
2016-03-27T01:58:01.624Z,7.77
2016-03-27T01:59:01.596Z,7.83
2016-03-27T02:00:01.630Z,7.83
2016-03-27T02:01:01.601Z,7.83
2016-03-27T02:02:01.713Z,7.83
2016-03-27T02:03:01.591Z,7.88
2016-03-27T02:04:01.578Z,7.87
2016-03-27T02:05:01.566Z,7.8
2016-03-27T02:06:01.568Z,7.8
2016-03-27T02:07:01.579Z,7.76
2016-03-27T02:08:01.691Z,7.82
2016-03-27T02:09:01.568Z,7.82
2016-03-27T02:10:01.649Z,7.75
2016-03-27T02:11:01.662Z,7.72
2016-03-27T02:12:01.571Z,7.75
2016-03-27T02:13:01.573Z,7.72
2016-03-27T02:14:01.562Z,7.7
2016-03-27T02:15:01.533Z,7.7
2016-03-27T02:16:01.535Z,7.69
2016-03-27T02:17:01.600Z,7.7
2016-03-27T02:18:01.556Z,7.69
2016-03-27T02:19:01.544Z,7.69
2016-03-27T02:20:04.547Z,7.7
2016-03-27T02:21:01.549Z,7.6
2016-03-27T02:22:01.552Z,7.73
2016-03-27T02:23:01.539Z,7.72
2016-03-27T02:24:01.541Z,7.7
2016-03-27T02:25:01.527Z,7.73
2016-03-27T02:26:01.374Z,7.79
2016-03-27T02:27:01.518Z,7.73
2016-03-27T02:28:01.521Z,7.76
2016-03-27T02:29:01.539Z,7.8
2016-03-27T02:30:01.526Z,7.73
2016-03-27T02:31:01.529Z,7.73
2016-03-27T02:32:01.250Z,7.75
2016-03-27T02:33:01.518Z,7.77
2016-03-27T02:34:01.505Z,7.77
2016-03-27T02:35:01.507Z,7.73
2016-03-27T02:36:01.527Z,7.69
2016-03-27T02:37:01.513Z,7.8
2016-03-27T02:38:01.485Z,7.67
2016-03-27T02:39:01.504Z,7.69
2016-03-27T02:40:01.506Z,7.82
2016-03-27T02:41:01.493Z,7.7
2016-03-27T02:42:01.496Z,7.72
2016-03-27T02:43:01.529Z,7.6
2016-03-27T02:44:01.486Z,7.6
2016-03-27T02:45:01.503Z,7.54
2016-03-27T02:46:01.491Z,7.54
2016-03-27T02:47:01.900Z,7.51
2016-03-27T02:48:01.700Z,7.53
2016-03-27T02:49:01.483Z,7.58
2016-03-27T02:50:01.486Z,7.43
2016-03-27T02:51:01.473Z,7.43
2016-03-27T02:52:01.475Z,7.38
2016-03-27T02:53:01.463Z,7.42
2016-03-27T02:54:01.497Z,7.39
2016-03-27T02:55:01.468Z,7.42
2016-03-27T02:56:01.455Z,7.42
2016-03-27T02:57:01.458Z,7.4
2016-03-27T02:58:01.460Z,7.43
2016-03-27T02:59:01.480Z,7.42
2016-03-27T03:00:01.482Z,7.38
2016-03-27T03:01:01.468Z,7.38
2016-03-27T03:02:01.581Z,7.43
2016-03-27T03:03:01.443Z,7.36
2016-03-27T03:04:01.446Z,7.36
2016-03-27T03:05:01.433Z,7.33
2016-03-27T03:06:01.435Z,7.36
2016-03-27T03:07:01.438Z,7.32
2016-03-27T03:08:01.426Z,7.32
2016-03-27T03:09:01.443Z,7.31
2016-03-27T03:10:01.445Z,7.28
2016-03-27T03:11:01.434Z,7.24
2016-03-27T03:12:01.404Z,7.33
2016-03-27T03:13:01.407Z,7.32
2016-03-27T03:14:01.426Z,7.29
2016-03-27T03:15:01.412Z,7.29
2016-03-27T03:16:01.400Z,7.29
2016-03-27T03:17:01.418Z,7.32
2016-03-27T03:18:01.405Z,7.32
2016-03-27T03:19:01.392Z,7.32
2016-03-27T03:20:01.411Z,7.38
2016-03-27T03:21:01.397Z,7.35
2016-03-27T03:22:01.370Z,7.35
2016-03-27T03:23:01.387Z,7.33
2016-03-27T03:24:01.389Z,7.32
2016-03-27T03:25:01.409Z,7.38
2016-03-27T03:26:01.395Z,7.35
2016-03-27T03:27:01.383Z,7.38
2016-03-27T03:28:01.260Z,7.33
2016-03-27T03:29:01.372Z,7.43
2016-03-27T03:30:01.359Z,7.42
2016-03-27T03:31:01.363Z,7.33
2016-03-27T03:32:01.411Z,7.47
2016-03-27T03:33:01.210Z,7.39
2016-03-27T03:34:01.339Z,7.42
2016-03-27T03:35:01.341Z,7.33
2016-03-27T03:36:01.359Z,7.39
2016-03-27T03:37:01.347Z,7.38
2016-03-27T03:38:01.349Z,7.33
2016-03-27T03:39:01.352Z,7.35
2016-03-27T03:40:01.355Z,7.32
2016-03-27T03:41:01.342Z,7.38
2016-03-27T03:42:01.360Z,7.35
2016-03-27T03:43:01.348Z,7.29
2016-03-27T03:44:01.334Z,7.29
2016-03-27T03:45:01.337Z,7.24
2016-03-27T03:46:01.324Z,7.25
2016-03-27T03:47:01.326Z,7.24
2016-03-27T03:48:01.314Z,7.23
2016-03-27T03:49:01.317Z,7.24
2016-03-27T03:50:01.319Z,7.33
2016-03-27T03:51:01.322Z,7.36
2016-03-27T03:52:01.309Z,7.31
2016-03-27T03:53:01.296Z,7.38
2016-03-27T03:54:01.299Z,7.39
2016-03-27T03:55:01.302Z,7.36
2016-03-27T03:56:01.288Z,7.36
2016-03-27T03:57:01.292Z,7.36
2016-03-27T03:58:01.294Z,7.42
2016-03-27T03:59:01.297Z,7.4
2016-03-27T04:00:01.283Z,7.47
2016-03-27T04:01:01.286Z,7.47
2016-03-27T04:02:01.289Z,7.47
2016-03-27T04:03:01.276Z,7.47
2016-03-27T04:04:01.279Z,7.48
2016-03-27T04:05:01.297Z,7.51
2016-03-27T04:06:01.285Z,7.5
2016-03-27T04:07:01.255Z,7.53
2016-03-27T04:08:01.276Z,7.48
2016-03-27T04:09:01.278Z,7.48
2016-03-27T04:10:01.265Z,7.48
2016-03-27T04:11:01.268Z,7.4
2016-03-27T04:12:01.255Z,7.4
2016-03-27T04:13:01.242Z,7.36
2016-03-27T04:14:01.542Z,7.4
2016-03-27T04:15:01.233Z,7.42
2016-03-27T04:16:01.235Z,7.38
2016-03-27T04:17:01.253Z,7.39
2016-03-27T04:18:01.272Z,7.38
2016-03-27T04:19:01.259Z,7.39
2016-03-27T04:20:01.230Z,7.43
2016-03-27T04:21:01.232Z,7.47
2016-03-27T04:22:01.236Z,7.45
2016-03-27T04:23:01.254Z,7.43
2016-03-27T04:24:01.225Z,7.51
2016-03-27T04:25:01.197Z,7.54
2016-03-27T04:26:01.215Z,7.48
2016-03-27T04:27:01.218Z,7.48
2016-03-27T04:28:01.205Z,7.58
2016-03-27T04:29:01.207Z,7.54
2016-03-27T04:30:01.209Z,7.53
2016-03-27T04:31:01.197Z,7.53
2016-03-27T04:32:01.199Z,7.47
2016-03-27T04:33:01.187Z,7.43
2016-03-27T04:34:01.205Z,7.43
2016-03-27T04:35:01.176Z,7.39
2016-03-27T04:36:01.414Z,7.43
2016-03-27T04:37:01.198Z,7.45
2016-03-27T04:38:01.185Z,7.5
2016-03-27T04:39:01.172Z,7.53
2016-03-27T04:40:01.190Z,7.53
2016-03-27T04:41:01.161Z,7.53
2016-03-27T04:42:01.165Z,7.43
2016-03-27T04:43:01.183Z,7.56
2016-03-27T04:44:01.169Z,7.54
2016-03-27T04:45:01.156Z,7.58
2016-03-27T04:46:01.144Z,7.56
2016-03-27T04:47:01.162Z,7.61
2016-03-27T04:48:01.164Z,7.58
2016-03-27T04:49:01.152Z,7.66
2016-03-27T04:50:01.139Z,7.58
2016-03-27T04:51:01.141Z,7.66
2016-03-27T04:52:01.160Z,7.67
2016-03-27T04:53:01.163Z,7.67
2016-03-27T04:54:01.149Z,7.72
2016-03-27T04:55:01.152Z,7.7
2016-03-27T04:56:01.171Z,7.67
2016-03-27T04:57:01.126Z,7.75
2016-03-27T04:58:01.129Z,7.72
2016-03-27T04:59:01.147Z,7.7
2016-03-27T05:00:01.118Z,7.79
2016-03-27T05:01:01.137Z,7.77
2016-03-27T05:02:01.140Z,7.82
2016-03-27T05:03:01.111Z,7.85
2016-03-27T05:04:01.114Z,7.82
2016-03-27T05:05:01.132Z,7.8
2016-03-27T05:06:01.119Z,7.88
2016-03-27T05:07:01.123Z,7.87
2016-03-27T05:08:01.109Z,7.9
2016-03-27T05:09:01.112Z,7.88
2016-03-27T05:10:01.099Z,7.83
2016-03-27T05:11:01.101Z,7.88
2016-03-27T05:12:01.104Z,7.93
2016-03-27T05:13:01.106Z,7.88
2016-03-27T05:14:01.094Z,7.93
2016-03-27T05:15:01.080Z,7.9
2016-03-27T05:16:01.084Z,7.9
2016-03-27T05:17:01.070Z,7.9
2016-03-27T05:18:01.073Z,7.95
2016-03-27T05:19:01.061Z,7.88
2016-03-27T05:20:01.094Z,7.85
2016-03-27T05:21:01.097Z,7.87
2016-03-27T05:22:01.084Z,7.87
2016-03-27T05:23:01.071Z,7.8
2016-03-27T05:24:01.074Z,7.82
2016-03-27T05:25:01.061Z,7.77
2016-03-27T05:26:01.063Z,7.8
2016-03-27T05:27:01.067Z,7.77
2016-03-27T05:28:01.054Z,7.79
2016-03-27T05:29:01.056Z,7.75
2016-03-27T05:30:01.060Z,7.85
2016-03-27T05:31:01.062Z,7.76
2016-03-27T05:32:01.048Z,7.76
2016-03-27T05:33:01.051Z,7.79
2016-03-27T05:34:01.070Z,7.7
2016-03-27T05:35:01.057Z,7.7
2016-03-27T05:36:01.060Z,7.72
2016-03-27T05:37:01.062Z,7.75
2016-03-27T05:38:01.064Z,7.7
2016-03-27T05:39:04.037Z,7.63
2016-03-27T05:40:01.054Z,7.61
2016-03-27T05:41:01.056Z,7.7
2016-03-27T05:42:01.013Z,7.56
2016-03-27T05:43:01.031Z,7.61
2016-03-27T05:44:01.018Z,7.6
2016-03-27T05:45:01.021Z,7.69
2016-03-27T05:46:01.023Z,7.76
2016-03-27T05:47:01.026Z,7.7
2016-03-27T05:48:01.013Z,7.8
2016-03-27T05:49:01.047Z,7.7
2016-03-27T05:50:01.034Z,7.77
2016-03-27T05:51:01.037Z,7.8
2016-03-27T05:52:01.227Z,7.97
2016-03-27T05:53:01.043Z,7.9
2016-03-27T05:54:01.014Z,7.95
2016-03-27T05:55:01.032Z,7.88
2016-03-27T05:56:01.004Z,7.97
2016-03-27T05:57:01.022Z,7.94
2016-03-27T05:58:00.993Z,8.03
2016-03-27T05:59:01.012Z,8.1
2016-03-27T06:00:01.015Z,8.05
2016-03-27T06:01:01.017Z,8.16
2016-03-27T06:02:01.005Z,8.16
2016-03-27T06:03:01.007Z,8.16
2016-03-27T06:04:00.978Z,8.1
2016-03-27T06:05:00.997Z,8.24
2016-03-27T06:06:01.015Z,8.28
2016-03-27T06:07:00.986Z,8.3
2016-03-27T06:08:01.005Z,8.28
2016-03-27T06:09:01.007Z,8.33
2016-03-27T06:10:00.995Z,8.31
2016-03-27T06:11:00.998Z,8.24
2016-03-27T06:12:01.000Z,8.37
2016-03-27T06:13:00.987Z,8.38
2016-03-27T06:14:01.006Z,8.3
2016-03-27T06:15:00.992Z,8.38
2016-03-27T06:16:00.978Z,8.38
2016-03-27T06:17:00.998Z,8.37
2016-03-27T06:18:00.984Z,8.41
2016-03-27T06:19:01.003Z,8.38
2016-03-27T06:20:00.990Z,8.42
2016-03-27T06:21:00.992Z,8.46
2016-03-27T06:22:01.011Z,8.61
2016-03-27T06:23:00.998Z,8.52
2016-03-27T06:24:00.985Z,8.52
2016-03-27T06:25:01.003Z,8.63
2016-03-27T06:26:00.991Z,8.64
2016-03-27T06:27:00.821Z,8.6
2016-03-27T06:28:00.997Z,8.67
2016-03-27T06:29:00.999Z,8.53
2016-03-27T06:30:00.970Z,8.63
2016-03-27T06:31:00.974Z,8.58
2016-03-27T06:32:00.976Z,8.6
2016-03-27T06:33:00.978Z,8.55
2016-03-27T06:34:00.982Z,8.63
2016-03-27T06:35:00.984Z,8.61
2016-03-27T06:36:00.987Z,8.52
2016-03-27T06:37:01.192Z,8.53
2016-03-27T06:38:00.976Z,8.6
2016-03-27T06:39:01.276Z,8.58
2016-03-27T06:40:00.981Z,8.56
2016-03-27T06:41:00.968Z,8.55
2016-03-27T06:42:00.987Z,8.6
2016-03-27T06:43:00.989Z,8.53
2016-03-27T06:44:00.962Z,8.6
2016-03-27T06:45:00.979Z,8.64
2016-03-27T06:46:00.998Z,8.58
2016-03-27T06:47:01.000Z,8.6
2016-03-27T06:48:01.003Z,8.63
2016-03-27T06:49:00.975Z,8.73
2016-03-27T06:50:00.978Z,8.67
2016-03-27T06:51:00.995Z,8.78
2016-03-27T06:52:00.983Z,8.91
2016-03-27T06:53:01.047Z,8.94
2016-03-27T06:54:00.988Z,8.92
2016-03-27T06:55:00.974Z,9.06
2016-03-27T06:56:00.962Z,9.14
2016-03-27T06:57:00.996Z,9.29
2016-03-27T06:58:00.966Z,9.37
2016-03-27T06:59:00.970Z,9.46
2016-03-27T07:00:00.988Z,9.32
2016-03-27T07:01:01.007Z,9.23
2016-03-27T07:02:00.963Z,9.22
2016-03-27T07:03:00.965Z,9.1
2016-03-27T07:04:00.843Z,9.1
2016-03-27T07:05:01.315Z,9.13
2016-03-27T07:06:00.832Z,9.08
2016-03-27T07:07:01.320Z,9.04
2016-03-27T07:08:00.979Z,9.06
2016-03-27T07:09:00.997Z,8.99
2016-03-27T07:10:00.999Z,9.04
2016-03-27T07:11:01.001Z,9
2016-03-27T07:12:00.990Z,9.13
2016-03-27T07:13:00.992Z,9.16
2016-03-27T07:14:00.994Z,9.16
2016-03-27T07:15:01.013Z,9.21
2016-03-27T07:16:00.984Z,9.22
2016-03-27T07:17:00.987Z,9.22
2016-03-27T07:18:00.990Z,9.31
2016-03-27T07:19:00.992Z,9.25
2016-03-27T07:20:01.026Z,9.29
2016-03-27T07:21:00.983Z,9.29
2016-03-27T07:22:01.031Z,9.32
2016-03-27T07:23:01.019Z,9.32
2016-03-27T07:24:03.991Z,9.37
2016-03-27T07:25:01.009Z,9.37
2016-03-27T07:26:01.027Z,9.41
2016-03-27T07:27:00.999Z,9.4
2016-03-27T07:28:00.986Z,9.41
2016-03-27T07:29:01.005Z,9.41
2016-03-27T07:30:00.990Z,9.4
2016-03-27T07:31:01.010Z,9.43
2016-03-27T07:32:00.996Z,9.37
2016-03-27T07:33:00.983Z,9.43
2016-03-27T07:34:01.018Z,9.31
2016-03-27T07:35:01.051Z,9.32
2016-03-27T07:36:01.007Z,9.31
2016-03-27T07:37:00.994Z,9.37
2016-03-27T07:38:01.293Z,9.34
2016-03-27T07:39:00.984Z,9.41
2016-03-27T07:40:00.987Z,9.37
2016-03-27T07:41:00.989Z,9.43
2016-03-27T07:42:01.040Z,9.44
2016-03-27T07:43:00.995Z,9.48
2016-03-27T07:44:00.981Z,9.51
2016-03-27T07:45:01.001Z,9.55
2016-03-27T07:46:01.003Z,9.58
2016-03-27T07:47:01.005Z,9.58
2016-03-27T07:48:01.023Z,9.55
2016-03-27T07:49:01.026Z,9.58
2016-03-27T07:50:00.998Z,9.51
2016-03-27T07:51:01.000Z,9.55
2016-03-27T07:52:01.034Z,9.65
2016-03-27T07:53:01.022Z,9.64
2016-03-27T07:54:01.024Z,9.64
2016-03-27T07:55:01.105Z,9.69
2016-03-27T07:56:01.108Z,9.69
2016-03-27T07:57:01.000Z,9.73
2016-03-27T07:58:01.301Z,9.69
2016-03-27T07:59:01.006Z,9.73
2016-03-27T08:00:01.008Z,9.73
2016-03-27T08:01:01.012Z,9.77
2016-03-27T08:02:01.046Z,9.86
2016-03-27T08:03:01.110Z,9.82
2016-03-27T08:04:01.019Z,9.91
2016-03-27T08:05:01.007Z,9.86
2016-03-27T08:06:01.040Z,9.97
2016-03-27T08:07:01.028Z,9.92
2016-03-27T08:08:01.030Z,10.04
2016-03-27T08:09:01.048Z,10.01
2016-03-27T08:10:01.036Z,10.04
2016-03-27T08:11:01.023Z,10.04
2016-03-27T08:12:01.025Z,10.15
2016-03-27T08:13:01.029Z,10.13
2016-03-27T08:14:01.031Z,10.12
2016-03-27T08:15:01.034Z,10.2
2016-03-27T08:16:01.052Z,10.15
2016-03-27T08:17:01.070Z,10.28
2016-03-27T08:18:01.104Z,10.28
2016-03-27T08:19:01.045Z,10.26
2016-03-27T08:20:01.031Z,10.15
2016-03-27T08:21:01.034Z,10.16
2016-03-27T08:22:01.022Z,10.13
2016-03-27T08:23:01.040Z,10.2
2016-03-27T08:24:01.027Z,10.22
2016-03-27T08:25:01.030Z,9.99
2016-03-27T08:26:01.047Z,10.13
2016-03-27T08:27:01.050Z,10.09
2016-03-27T08:28:01.053Z,10.2
2016-03-27T08:29:01.071Z,10.3
2016-03-27T08:30:01.027Z,10.13
2016-03-27T08:31:01.030Z,10.2
2016-03-27T08:32:01.049Z,10.16
2016-03-27T08:33:01.066Z,10.15
2016-03-27T08:34:01.054Z,10.3
2016-03-27T08:35:01.088Z,10.2
2016-03-27T08:36:01.043Z,10.26
2016-03-27T08:37:01.077Z,10.26
2016-03-27T08:38:01.096Z,10.23
2016-03-27T08:39:01.113Z,10.28
2016-03-27T08:40:01.102Z,10.31
2016-03-27T08:41:01.073Z,10.31
2016-03-27T08:42:01.059Z,10.42
2016-03-27T08:43:01.062Z,10.35
2016-03-27T08:44:01.081Z,10.56
2016-03-27T08:45:01.051Z,10.56
2016-03-27T08:46:01.101Z,10.63
2016-03-27T08:47:01.057Z,10.67
2016-03-27T08:48:01.106Z,10.72
2016-03-27T08:49:01.095Z,10.75
2016-03-27T08:50:01.081Z,10.79
2016-03-27T08:51:01.067Z,10.74
2016-03-27T08:52:01.103Z,10.78
2016-03-27T08:53:01.105Z,10.78
2016-03-27T08:54:01.075Z,10.84
2016-03-27T08:55:01.079Z,10.94
2016-03-27T08:56:01.097Z,10.94
2016-03-27T08:57:01.116Z,10.87
2016-03-27T08:58:01.119Z,10.89
2016-03-27T08:59:01.089Z,10.94
2016-03-27T09:00:01.249Z,11.02
2016-03-27T09:01:01.094Z,11
2016-03-27T09:02:01.097Z,11.08
2016-03-27T09:03:01.319Z,11.19
2016-03-27T09:04:01.087Z,11.11
2016-03-27T09:05:01.091Z,11.26
2016-03-27T09:06:01.108Z,11.33
2016-03-27T09:07:00.971Z,11.43
2016-03-27T09:08:01.096Z,11.43
2016-03-27T09:09:01.114Z,11.47
2016-03-27T09:10:01.102Z,11.55
2016-03-27T09:11:01.119Z,11.66
2016-03-27T09:12:01.138Z,11.78
2016-03-27T09:13:01.125Z,11.83
2016-03-27T09:14:01.128Z,11.86
2016-03-27T09:15:01.130Z,11.99
2016-03-27T09:16:01.118Z,11.99
2016-03-27T09:17:01.121Z,12.03
2016-03-27T09:18:01.138Z,12.04
2016-03-27T09:19:01.126Z,12.07
2016-03-27T09:20:01.129Z,12.2
2016-03-27T09:21:01.115Z,12.22
2016-03-27T09:22:01.119Z,12.25
2016-03-27T09:23:01.121Z,12.24
2016-03-27T09:24:01.119Z,12.27
2016-03-27T09:25:01.173Z,12.27
2016-03-27T09:26:01.163Z,12.27
2016-03-27T09:27:01.138Z,12.21
2016-03-27T09:28:01.113Z,12.22
2016-03-27T09:29:01.092Z,12.21
2016-03-27T09:30:01.075Z,12.21
2016-03-27T09:31:01.073Z,12.24
2016-03-27T09:32:01.071Z,12.21
2016-03-27T09:33:01.086Z,12.29
2016-03-27T09:34:01.100Z,12.21
2016-03-27T09:35:01.086Z,12.24
2016-03-27T09:36:01.102Z,12.22
2016-03-27T09:37:01.089Z,12.27
2016-03-27T09:38:01.074Z,12.21
2016-03-27T09:39:01.107Z,12.29
2016-03-27T09:40:01.094Z,12.21
2016-03-27T09:41:01.096Z,12.15
2016-03-27T09:42:01.067Z,12.17
2016-03-27T09:43:01.084Z,12.25
2016-03-27T09:44:01.086Z,12.28
2016-03-27T09:45:01.089Z,12.29
2016-03-27T09:46:01.075Z,12.31
2016-03-27T09:47:01.094Z,12.32
2016-03-27T09:48:01.096Z,12.24
2016-03-27T09:49:01.129Z,12.35
2016-03-27T09:50:01.117Z,12.29
2016-03-27T09:51:01.120Z,12.39
2016-03-27T09:52:01.138Z,12.4
2016-03-27T09:53:01.109Z,12.22
2016-03-27T09:54:01.128Z,12.27
2016-03-27T09:55:01.130Z,12.36
2016-03-27T09:56:01.134Z,12.29
2016-03-27T09:57:01.120Z,12.25
2016-03-27T09:58:01.122Z,12.32
2016-03-27T09:59:01.142Z,12.28
2016-03-27T10:00:01.128Z,12.22
2016-03-27T10:01:01.161Z,12.31
2016-03-27T10:02:01.118Z,12.28
2016-03-27T10:03:01.152Z,12.29
2016-03-27T10:04:01.139Z,12.28
2016-03-27T10:05:01.158Z,12.36
2016-03-27T10:06:01.144Z,12.31
2016-03-27T10:07:01.147Z,12.29
2016-03-27T10:08:01.166Z,12.32
2016-03-27T10:09:01.183Z,12.35
2016-03-27T10:10:01.155Z,12.35
2016-03-27T10:11:01.174Z,12.29
2016-03-27T10:12:01.176Z,12.28
2016-03-27T10:13:01.179Z,12.28
2016-03-27T10:14:01.182Z,12.24
2016-03-27T10:15:01.215Z,12.31
2016-03-27T10:16:01.187Z,12.25
2016-03-27T10:17:01.190Z,12.27
2016-03-27T10:18:01.192Z,12.31
2016-03-27T10:19:01.195Z,12.29
2016-03-27T10:20:01.198Z,12.35
2016-03-27T10:21:01.200Z,12.35
2016-03-27T10:22:01.204Z,12.32
2016-03-27T10:23:01.190Z,12.36
2016-03-27T10:24:01.223Z,12.32
2016-03-27T10:25:01.212Z,12.47
2016-03-27T10:26:01.214Z,12.42
2016-03-27T10:27:01.434Z,12.49
2016-03-27T10:28:01.204Z,12.43
2016-03-27T10:29:01.222Z,12.49
2016-03-27T10:30:01.225Z,12.6
2016-03-27T10:31:01.227Z,12.65
2016-03-27T10:32:01.214Z,12.64
2016-03-27T10:33:01.232Z,12.62
2016-03-27T10:34:01.236Z,12.61
2016-03-27T10:35:01.253Z,12.49
2016-03-27T10:36:01.224Z,12.46
2016-03-27T10:37:01.259Z,12.49
2016-03-27T10:38:01.246Z,12.47
2016-03-27T10:39:01.264Z,12.54
2016-03-27T10:40:01.252Z,12.6
2016-03-27T10:41:01.285Z,12.58
2016-03-27T10:42:01.100Z,12.64
2016-03-27T10:43:04.275Z,12.72
2016-03-27T10:44:01.277Z,12.78
2016-03-27T10:45:01.265Z,12.79
2016-03-27T10:46:01.299Z,12.8
2016-03-27T10:47:01.318Z,12.79
2016-03-27T10:48:01.289Z,12.94
2016-03-27T10:49:01.276Z,12.93
2016-03-27T10:50:01.278Z,13
2016-03-27T10:51:01.281Z,13.03
2016-03-27T10:52:01.299Z,13.15
2016-03-27T10:53:01.286Z,13.22
2016-03-27T10:54:01.289Z,13.18
2016-03-27T10:55:01.292Z,13.23
2016-03-27T10:56:01.310Z,13.35
2016-03-27T10:57:01.312Z,13.47
2016-03-27T10:58:01.331Z,13.49
2016-03-27T10:59:01.303Z,13.37
2016-03-27T11:00:01.305Z,13.33
2016-03-27T11:01:01.323Z,13.42
2016-03-27T11:02:01.326Z,13.47
2016-03-27T11:03:01.344Z,13.5
2016-03-27T11:04:01.348Z,13.46
2016-03-27T11:05:01.350Z,13.47
2016-03-27T11:06:01.336Z,13.46
2016-03-27T11:07:01.356Z,13.54
2016-03-27T11:08:01.389Z,13.41
2016-03-27T11:09:01.391Z,13.28
2016-03-27T11:10:01.347Z,13.23
2016-03-27T11:11:01.382Z,13.16
2016-03-27T11:12:01.416Z,13.18
2016-03-27T11:13:01.387Z,13.22
2016-03-27T11:14:01.358Z,13.3
2016-03-27T11:15:01.361Z,13.25
2016-03-27T11:16:01.379Z,13.27
2016-03-27T11:17:01.382Z,13.44
2016-03-27T11:18:01.385Z,13.41
2016-03-27T11:19:01.403Z,13.47
2016-03-27T11:20:01.407Z,13.56
2016-03-27T11:21:01.424Z,13.57
2016-03-27T11:22:01.426Z,13.54
2016-03-27T11:23:01.430Z,13.7
2016-03-27T11:24:01.417Z,13.74
2016-03-27T11:25:01.434Z,13.83
2016-03-27T11:26:01.265Z,13.95
2016-03-27T11:27:01.456Z,14.15
2016-03-27T11:28:01.428Z,14.35
2016-03-27T11:29:01.430Z,14.43
2016-03-27T11:30:01.417Z,14.55
2016-03-27T11:31:01.451Z,14.48
2016-03-27T11:32:01.438Z,14.4
2016-03-27T11:33:01.441Z,14.44
2016-03-27T11:34:01.444Z,14.44
2016-03-27T11:35:01.462Z,14.33
2016-03-27T11:36:01.496Z,14.35
2016-03-27T11:37:01.483Z,14.32
2016-03-27T11:38:01.516Z,14.33
2016-03-27T11:39:01.472Z,14.2
2016-03-27T11:40:01.491Z,14.12
2016-03-27T11:41:01.494Z,14.14
2016-03-27T11:42:01.511Z,14.18
2016-03-27T11:43:01.514Z,14.23
2016-03-27T11:44:01.502Z,14.4
2016-03-27T11:45:01.519Z,14.35
2016-03-27T11:46:01.538Z,14.22
2016-03-27T11:47:01.510Z,14.22
2016-03-27T11:48:01.574Z,14.04
2016-03-27T11:49:01.530Z,14.11
2016-03-27T11:50:01.549Z,14.03
2016-03-27T11:51:01.552Z,14.05
2016-03-27T11:52:01.554Z,13.96
2016-03-27T11:53:01.573Z,13.95
2016-03-27T11:54:01.576Z,13.93
2016-03-27T11:55:01.593Z,13.9
2016-03-27T11:56:01.549Z,13.86
2016-03-27T11:57:01.552Z,13.83
2016-03-27T11:58:01.587Z,13.77
2016-03-27T11:59:01.589Z,13.75
2016-03-27T12:00:01.592Z,13.67
2016-03-27T12:01:01.610Z,13.7
2016-03-27T12:02:01.597Z,13.7
2016-03-27T12:03:01.599Z,13.59
2016-03-27T12:04:01.603Z,13.56
2016-03-27T12:05:01.636Z,13.59
2016-03-27T12:06:01.639Z,13.67
2016-03-27T12:07:01.611Z,13.56
2016-03-27T12:08:01.628Z,13.59
2016-03-27T12:09:01.631Z,13.52
2016-03-27T12:10:01.666Z,13.47
2016-03-27T12:11:01.684Z,13.38
2016-03-27T12:12:01.655Z,13.33
2016-03-27T12:13:01.627Z,13.25
2016-03-27T12:14:01.676Z,13.13
2016-03-27T12:15:01.679Z,13.2
2016-03-27T12:16:01.649Z,13.11
2016-03-27T12:17:01.669Z,13.04
2016-03-27T12:18:01.905Z,12.97
2016-03-27T12:19:01.674Z,12.97
2016-03-27T12:20:01.660Z,13.11
2016-03-27T12:21:01.680Z,13.13
2016-03-27T12:22:01.682Z,13.13
2016-03-27T12:23:01.700Z,13.2
2016-03-27T12:24:01.688Z,13.16
2016-03-27T12:25:01.674Z,13.23
2016-03-27T12:26:01.676Z,13.31
2016-03-27T12:27:01.711Z,13.37
2016-03-27T12:28:01.714Z,13.44
2016-03-27T12:29:01.701Z,13.47
2016-03-27T12:30:01.734Z,13.62
2016-03-27T12:31:01.722Z,13.56
2016-03-27T12:32:01.725Z,13.67
2016-03-27T12:33:01.727Z,13.71
2016-03-27T12:34:01.745Z,13.75
2016-03-27T12:35:01.733Z,13.81
2016-03-27T12:36:01.736Z,13.71
2016-03-27T12:37:01.722Z,13.7
2016-03-27T12:38:01.725Z,13.53
2016-03-27T12:39:01.759Z,13.62
2016-03-27T12:40:01.746Z,13.56
2016-03-27T12:41:01.764Z,13.68
2016-03-27T12:42:02.047Z,13.67
2016-03-27T12:43:01.770Z,13.75
2016-03-27T12:44:01.772Z,13.81
2016-03-27T12:45:01.774Z,13.89
2016-03-27T12:46:01.746Z,13.9
2016-03-27T12:47:01.593Z,13.9
2016-03-27T12:48:01.783Z,13.92
2016-03-27T12:49:01.785Z,13.89
2016-03-27T12:50:01.789Z,13.9
2016-03-27T12:51:01.791Z,13.9
2016-03-27T12:52:01.778Z,13.93
2016-03-27T12:53:01.828Z,13.93
2016-03-27T12:54:01.830Z,13.95
2016-03-27T12:55:01.802Z,13.83
2016-03-27T12:56:01.820Z,13.79
2016-03-27T12:57:01.823Z,13.71
2016-03-27T12:58:01.841Z,13.68
2016-03-27T12:59:01.828Z,13.65
2016-03-27T13:00:01.831Z,13.6
2016-03-27T13:01:01.865Z,13.57
2016-03-27T13:02:02.039Z,13.46
2016-03-27T13:03:01.886Z,13.44
2016-03-27T13:04:01.717Z,13.33
2016-03-27T13:05:01.876Z,13.37
2016-03-27T13:06:01.909Z,13.31
2016-03-27T13:07:01.865Z,13.25
2016-03-27T13:08:01.867Z,13.23
2016-03-27T13:09:01.699Z,13.31
2016-03-27T13:10:01.889Z,13.27
2016-03-27T13:11:02.189Z,13.28